KDUA/DUA METAR and TAF weather

Enter ICAO airport designator
Station Type Date Time Source
KDUA METAR 2022/05/26 04:55 UTC NOAA

KDUA 260455Z AUTO 27007KT 10SM OVC042 16/10 A2987 RMK AO2


Station Type Date Time Source
KDUA Decoded METAR 2022/05/26 04:55 UTC NOAA

Durant, Eaker Field Airport, OK, United States (KDUA) 33-56-32N 096-23-40W
May 26, 2022 - 12:55 AM EDT / 2022.05.26 0455 UTC
Wind: from the W (270 degrees) at 8 MPH (7 KT):0
Visibility: 10 mile(s):0
Sky conditions: overcast
Temperature: 60 F (16 C)
Dew Point: 50 F (10 C)
Relative Humidity: 67%
Pressure (altimeter): 29.87 in. Hg (1011 hPa)
ob: KDUA 260455Z AUTO 27007KT 10SM OVC042 16/10 A2987 RMK AO2
cycle: 5

Station Type Date Time Source
KDUA TAF UTC NOAA

Error!

Example: see airport list